createdAt,value
2022-11-26T00:02:18.808Z,48.78
2022-11-26T00:05:08.268Z,48.49
2022-11-26T00:08:00.372Z,48.69
2022-11-26T00:10:50.777Z,48.69
2022-11-26T00:13:39.498Z,48.85
2022-11-26T00:16:28.368Z,48.73
2022-11-26T00:19:18.353Z,48.91
2022-11-26T00:22:07.184Z,49.12
2022-11-26T00:24:56.318Z,48.82
2022-11-26T00:27:44.951Z,48.68
2022-11-26T00:30:33.716Z,48.65
2022-11-26T00:33:22.347Z,49.07
2022-11-26T00:36:18.528Z,48.64
2022-11-26T00:39:09.036Z,48.83
2022-11-26T00:41:57.584Z,48.63
2022-11-26T00:44:46.401Z,48.97
2022-11-26T00:50:25.104Z,48.89
2022-11-26T00:53:16.691Z,48.77
2022-11-26T00:56:05.346Z,49.13
2022-11-26T00:58:53.918Z,48.93
2022-11-26T01:01:42.578Z,48.70
2022-11-26T01:04:31.169Z,49.01
2022-11-26T01:07:19.839Z,48.79
2022-11-26T01:10:16.902Z,48.82
2022-11-26T01:13:05.547Z,48.76
2022-11-26T01:15:54.086Z,48.61
2022-11-26T01:18:42.747Z,48.83
2022-11-26T01:21:33.385Z,48.71
2022-11-26T01:24:22.042Z,48.88
2022-11-26T01:27:12.860Z,49.07
2022-11-26T01:30:01.498Z,49.09
2022-11-26T01:32:50.587Z,48.97
2022-11-26T01:35:39.619Z,48.87
2022-11-26T01:38:28.289Z,49.08
2022-11-26T01:41:22.837Z,49.07
2022-11-26T01:44:19.231Z,48.73
2022-11-26T01:47:22.069Z,49.15
2022-11-26T01:50:46.923Z,49.13
2022-11-26T01:53:48.417Z,48.99
2022-11-26T01:56:39.823Z,48.78
2022-11-26T01:59:31.652Z,48.91
2022-11-26T02:02:21.817Z,48.67
2022-11-26T02:05:13.543Z,48.78
2022-11-26T02:08:02.572Z,48.78
2022-11-26T02:10:53.207Z,48.67
2022-11-26T02:13:42.018Z,49.14
2022-11-26T02:16:58.211Z,48.88
2022-11-26T02:20:12.523Z,48.94
2022-11-26T02:23:26.576Z,49.05
2022-11-26T02:26:43.720Z,48.83
2022-11-26T02:30:02.021Z,48.84
2022-11-26T02:33:00.206Z,49.11
2022-11-26T02:35:50.502Z,49.02
2022-11-26T02:38:40.059Z,48.93
2022-11-26T02:41:33.852Z,49.03
2022-11-26T02:44:24.259Z,48.63
2022-11-26T02:47:16.788Z,48.56
2022-11-26T02:50:08.957Z,48.82
2022-11-26T02:52:59.208Z,48.68
2022-11-26T02:55:49.809Z,48.56
2022-11-26T02:58:38.592Z,49.11
2022-11-26T03:01:31.844Z,48.83
2022-11-26T03:04:24.905Z,48.81
2022-11-26T03:07:14.887Z,48.65
2022-11-26T03:10:04.493Z,48.64
2022-11-26T03:12:53.217Z,49.00
2022-11-26T03:15:41.836Z,48.98
2022-11-26T03:18:30.574Z,48.90
2022-11-26T03:21:20.481Z,48.83
2022-11-26T03:24:09.354Z,48.89
2022-11-26T03:26:57.964Z,48.87
2022-11-26T03:29:46.705Z,49.11
2022-11-26T03:32:35.325Z,49.14
2022-11-26T03:35:24.018Z,49.04
2022-11-26T03:38:13.958Z,49.07
2022-11-26T03:41:04.605Z,49.00
2022-11-26T03:43:53.162Z,48.90
2022-11-26T03:46:42.023Z,48.67
2022-11-26T03:49:33.472Z,48.95
2022-11-26T03:52:22.139Z,48.86
2022-11-26T03:55:12.272Z,48.76
2022-11-26T03:58:01.030Z,48.97
2022-11-26T04:00:49.661Z,49.26
2022-11-26T04:03:38.541Z,48.97
2022-11-26T04:06:27.404Z,48.99
2022-11-26T04:09:18.426Z,49.15
2022-11-26T04:12:08.650Z,48.94
2022-11-26T04:14:57.256Z,49.04
2022-11-26T04:17:45.995Z,49.03
2022-11-26T04:20:34.573Z,49.01
2022-11-26T04:23:23.516Z,48.94
2022-11-26T04:26:12.141Z,49.20
2022-11-26T04:29:02.236Z,48.87
2022-11-26T04:31:51.095Z,49.22
2022-11-26T04:34:40.050Z,49.18
2022-11-26T04:37:28.854Z,49.22
2022-11-26T04:40:18.607Z,48.99
2022-11-26T04:43:07.364Z,49.07
2022-11-26T04:45:57.450Z,48.94
2022-11-26T04:48:46.124Z,48.94
2022-11-26T04:51:34.753Z,49.35
2022-11-26T04:54:23.557Z,48.72
2022-11-26T04:57:12.225Z,49.25
2022-11-26T05:00:00.949Z,48.87
2022-11-26T05:02:50.926Z,49.27
2022-11-26T05:05:39.705Z,48.92
2022-11-26T05:08:28.500Z,49.21
2022-11-26T05:11:17.163Z,48.72
2022-11-26T05:14:05.825Z,48.72
2022-11-26T05:16:54.567Z,48.73
2022-11-26T05:19:44.580Z,49.22
2022-11-26T05:22:33.304Z,49.19
2022-11-26T05:25:22.001Z,49.33
2022-11-26T05:28:10.603Z,49.22
2022-11-26T05:31:00.787Z,48.99
2022-11-26T05:33:49.402Z,48.86
2022-11-26T05:36:39.358Z,49.20
2022-11-26T05:39:28.155Z,48.98
2022-11-26T05:42:16.732Z,49.03
2022-11-26T05:45:06.395Z,48.85
2022-11-26T05:47:55.064Z,49.07
2022-11-26T05:50:43.665Z,48.83
2022-11-26T05:53:33.621Z,48.78
2022-11-26T05:56:22.175Z,48.89
2022-11-26T05:59:10.809Z,49.03
2022-11-26T06:01:59.523Z,48.92
2022-11-26T06:04:48.150Z,48.68
2022-11-26T06:07:40.619Z,48.79
2022-11-26T06:10:33.422Z,48.96
2022-11-26T06:13:22.082Z,49.11
2022-11-26T06:16:10.875Z,49.20
2022-11-26T06:19:00.062Z,48.79
2022-11-26T06:21:48.644Z,49.24
2022-11-26T06:24:37.953Z,49.25
2022-11-26T06:27:28.126Z,49.14
2022-11-26T06:30:16.784Z,48.80
2022-11-26T06:33:05.444Z,49.33
2022-11-26T06:35:54.036Z,49.29
2022-11-26T06:38:43.307Z,48.96
2022-11-26T06:41:34.120Z,49.15
2022-11-26T06:44:24.123Z,48.93
2022-11-26T06:47:12.969Z,49.19
2022-11-26T06:50:04.150Z,49.09
2022-11-26T06:52:56.603Z,49.17
2022-11-26T06:55:45.379Z,49.18
2022-11-26T06:58:34.239Z,48.98
2022-11-26T07:01:26.112Z,49.33
2022-11-26T07:04:15.024Z,49.06
2022-11-26T07:07:03.676Z,49.14
2022-11-26T07:09:52.202Z,49.03
2022-11-26T07:12:40.879Z,48.80
2022-11-26T07:15:29.638Z,49.26
2022-11-26T07:18:19.617Z,49.03
2022-11-26T07:21:09.175Z,48.88
2022-11-26T07:23:57.864Z,49.35
2022-11-26T07:26:46.539Z,49.26
2022-11-26T07:29:35.206Z,49.20
2022-11-26T07:32:23.847Z,49.14
2022-11-26T07:35:13.926Z,49.14
2022-11-26T07:38:02.569Z,49.46
2022-11-26T07:40:51.179Z,49.10
2022-11-26T07:43:40.851Z,48.94
2022-11-26T07:46:29.519Z,48.43
2022-11-26T07:49:18.237Z,47.43
2022-11-26T07:52:08.301Z,47.32
2022-11-26T07:54:56.855Z,47.36
2022-11-26T07:57:45.420Z,47.06
2022-11-26T08:00:34.022Z,47.03
2022-11-26T08:03:22.686Z,46.57
2022-11-26T08:06:13.352Z,46.57
2022-11-26T08:09:04.690Z,45.82
2022-11-26T08:11:53.287Z,45.89
2022-11-26T08:14:41.859Z,45.66
2022-11-26T08:17:30.479Z,45.67
2022-11-26T08:20:20.001Z,45.88
2022-11-26T08:23:10.840Z,46.05
2022-11-26T08:29:09.608Z,46.41
2022-11-26T08:31:58.198Z,46.35
2022-11-26T08:34:46.757Z,46.61
2022-11-26T08:37:35.373Z,47.00
2022-11-26T08:40:24.006Z,47.07
2022-11-26T08:43:13.955Z,47.69
2022-11-26T08:46:02.611Z,47.88
2022-11-26T08:48:51.240Z,47.57
2022-11-26T08:51:39.895Z,48.09
2022-11-26T08:54:30.766Z,48.19
2022-11-26T08:57:19.330Z,48.51
2022-11-26T09:00:10.661Z,48.50
2022-11-26T09:02:59.355Z,48.46
2022-11-26T09:05:48.082Z,47.97
2022-11-26T09:08:57.875Z,47.47
2022-11-26T09:11:49.421Z,47.33
2022-11-26T09:14:40.287Z,47.37
2022-11-26T09:17:31.662Z,47.80
2022-11-26T09:20:20.559Z,48.47
2022-11-26T09:23:09.192Z,48.86
2022-11-26T09:25:57.871Z,49.76
2022-11-26T09:28:46.500Z,49.42
2022-11-26T09:31:35.141Z,49.23
2022-11-26T09:34:25.188Z,49.38
2022-11-26T09:37:13.746Z,49.71
2022-11-26T09:40:02.449Z,49.31
2022-11-26T09:43:04.389Z,48.95
2022-11-26T09:45:59.251Z,49.40
2022-11-26T09:48:48.142Z,49.78
2022-11-26T09:51:38.239Z,50.17
2022-11-26T09:54:28.844Z,50.86
2022-11-26T09:57:23.553Z,50.73
2022-11-26T10:00:24.529Z,50.98
2022-11-26T10:03:15.645Z,50.69
2022-11-26T10:06:08.230Z,50.94
2022-11-26T10:09:19.519Z,50.72
2022-11-26T10:12:24.717Z,50.29
2022-11-26T10:15:17.906Z,50.47
2022-11-26T10:18:17.000Z,50.52
2022-11-26T10:21:26.956Z,50.75
2022-11-26T10:24:28.433Z,50.81
2022-11-26T10:27:18.327Z,50.73
2022-11-26T10:30:18.343Z,50.64
2022-11-26T10:33:08.416Z,50.54
2022-11-26T10:35:57.076Z,50.73
2022-11-26T10:38:45.715Z,51.11
2022-11-26T10:41:37.561Z,50.76
2022-11-26T10:44:40.094Z,50.69
2022-11-26T10:47:30.466Z,50.80
2022-11-26T10:53:34.148Z,49.95
2022-11-26T10:56:25.234Z,50.09
2022-11-26T10:59:22.363Z,49.99
2022-11-26T11:02:26.676Z,50.20
2022-11-26T11:05:21.976Z,49.80
2022-11-26T11:08:15.564Z,50.13
2022-11-26T11:11:05.545Z,50.12
2022-11-26T11:13:54.620Z,49.81
2022-11-26T11:16:46.565Z,50.38
2022-11-26T11:19:36.518Z,50.03
2022-11-26T11:22:25.318Z,50.00
2022-11-26T11:25:23.259Z,49.72
2022-11-26T11:28:18.599Z,49.93
2022-11-26T11:31:11.389Z,50.20
2022-11-26T11:34:21.751Z,50.22
2022-11-26T11:37:15.729Z,50.06
2022-11-26T11:40:06.288Z,50.13
2022-11-26T11:42:58.277Z,49.86
2022-11-26T11:45:53.665Z,49.73
2022-11-26T11:48:50.187Z,49.89
2022-11-26T11:51:45.875Z,49.80
2022-11-26T11:54:41.290Z,49.69
2022-11-26T11:57:41.192Z,49.55
2022-11-26T12:00:35.400Z,50.01
2022-11-26T12:03:49.726Z,49.96
2022-11-26T12:06:44.322Z,50.12
2022-11-26T12:09:36.551Z,50.05
2022-11-26T12:12:27.670Z,49.81
2022-11-26T12:15:24.668Z,50.17
2022-11-26T12:18:20.280Z,50.11
2022-11-26T12:21:11.801Z,49.90
2022-11-26T12:24:04.437Z,49.96
2022-11-26T12:26:55.165Z,49.81
2022-11-26T12:29:46.182Z,50.00
2022-11-26T12:32:38.149Z,49.75
2022-11-26T12:35:30.969Z,49.72
2022-11-26T12:38:25.097Z,49.71
2022-11-26T12:41:18.958Z,49.66
2022-11-26T12:44:13.633Z,49.52
2022-11-26T12:47:11.442Z,49.38
2022-11-26T12:50:07.763Z,49.09
2022-11-26T12:53:02.491Z,49.30
2022-11-26T12:55:56.262Z,49.63
2022-11-26T12:58:51.646Z,49.06
2022-11-26T13:01:40.387Z,49.54
2022-11-26T13:04:49.269Z,49.18
2022-11-26T13:07:55.675Z,49.43
2022-11-26T13:10:54.675Z,49.42
2022-11-26T13:13:47.186Z,49.15
2022-11-26T13:16:40.310Z,49.37
2022-11-26T13:19:32.896Z,49.17
2022-11-26T13:22:55.277Z,48.54
2022-11-26T13:25:58.539Z,48.53
2022-11-26T13:29:02.654Z,48.73
2022-11-26T13:32:01.913Z,49.18
2022-11-26T13:35:02.430Z,49.11
2022-11-26T13:38:12.765Z,49.13
2022-11-26T13:41:22.366Z,48.79
2022-11-26T13:44:51.718Z,48.92
2022-11-26T13:47:44.911Z,49.26
2022-11-26T13:50:37.912Z,49.03
2022-11-26T13:53:30.138Z,48.77
2022-11-26T13:56:22.530Z,47.80
2022-11-26T13:59:17.937Z,47.75
2022-11-26T14:02:42.326Z,47.87
2022-11-26T14:06:07.997Z,48.22
2022-11-26T14:08:58.601Z,48.23
2022-11-26T14:11:58.008Z,48.67
2022-11-26T14:14:47.895Z,48.71
2022-11-26T14:17:57.075Z,48.94
2022-11-26T14:21:15.502Z,47.92
2022-11-26T14:24:05.830Z,48.72
2022-11-26T14:26:54.843Z,48.13
2022-11-26T14:29:43.477Z,48.40
2022-11-26T14:32:35.820Z,49.25
2022-11-26T14:35:33.627Z,48.79
2022-11-26T14:38:26.174Z,48.67
2022-11-26T14:41:16.104Z,48.93
2022-11-26T14:44:08.714Z,48.52
2022-11-26T14:46:59.880Z,47.71
2022-11-26T14:49:51.218Z,48.04
2022-11-26T14:52:41.689Z,48.44
2022-11-26T14:55:31.466Z,47.79
2022-11-26T14:58:32.656Z,48.39
2022-11-26T15:01:23.899Z,47.86
2022-11-26T15:04:24.158Z,47.31
2022-11-26T15:07:25.544Z,47.71
2022-11-26T15:10:22.086Z,48.14
2022-11-26T15:13:15.854Z,47.55
2022-11-26T15:16:26.989Z,47.27
2022-11-26T15:19:16.511Z,46.44
2022-11-26T15:22:07.988Z,46.00
2022-11-26T15:24:56.806Z,44.88
2022-11-26T15:27:53.302Z,45.27
2022-11-26T15:30:41.945Z,44.99
2022-11-26T15:33:33.653Z,44.92
2022-11-26T15:36:22.334Z,44.82
2022-11-26T15:39:25.876Z,44.71
2022-11-26T15:42:28.192Z,44.98
2022-11-26T15:45:18.127Z,44.53
2022-11-26T15:48:07.753Z,44.44
2022-11-26T15:50:59.316Z,44.26
2022-11-26T15:53:49.722Z,44.37
2022-11-26T15:56:39.646Z,44.51
2022-11-26T15:59:29.936Z,44.08
2022-11-26T16:02:20.605Z,44.31
2022-11-26T16:05:23.992Z,44.59
2022-11-26T16:08:26.873Z,43.92
2022-11-26T16:11:23.601Z,43.56
2022-11-26T16:14:29.062Z,43.50
2022-11-26T16:17:19.439Z,43.27
2022-11-26T16:20:18.361Z,43.77
2022-11-26T16:23:07.013Z,44.05
2022-11-26T16:26:11.909Z,44.63
2022-11-26T16:29:00.529Z,45.00
2022-11-26T16:31:49.151Z,45.58
2022-11-26T16:34:38.169Z,46.06
2022-11-26T16:37:28.727Z,45.90
2022-11-26T16:40:18.970Z,45.96
2022-11-26T16:43:08.962Z,45.96
2022-11-26T16:45:57.656Z,45.35
2022-11-26T16:48:47.118Z,44.62
2022-11-26T16:51:35.748Z,44.45
2022-11-26T16:54:24.299Z,45.42
2022-11-26T16:57:15.807Z,45.59
2022-11-26T17:00:08.618Z,46.19
2022-11-26T17:02:57.271Z,45.45
2022-11-26T17:05:45.951Z,45.19
2022-11-26T17:08:35.975Z,45.21
2022-11-26T17:11:24.995Z,44.74
2022-11-26T17:14:14.087Z,44.93
2022-11-26T17:17:04.164Z,44.83
2022-11-26T17:19:53.030Z,44.95
2022-11-26T17:22:41.894Z,44.84
2022-11-26T17:25:31.008Z,44.62
2022-11-26T17:28:20.999Z,45.11
2022-11-26T17:31:09.605Z,44.82
2022-11-26T17:33:59.702Z,45.10
2022-11-26T17:36:49.490Z,45.04
2022-11-26T17:39:38.435Z,44.75
2022-11-26T17:42:29.093Z,45.00
2022-11-26T17:45:21.071Z,45.17
2022-11-26T17:48:13.368Z,45.02
2022-11-26T17:51:03.416Z,44.98
2022-11-26T17:53:52.044Z,45.24
2022-11-26T17:56:40.759Z,45.08
2022-11-26T17:59:29.639Z,45.37
2022-11-26T18:02:18.294Z,45.28
2022-11-26T18:05:07.810Z,45.17
2022-11-26T18:07:58.109Z,45.08
2022-11-26T18:10:46.888Z,45.18
2022-11-26T18:13:35.593Z,45.06
2022-11-26T18:16:24.288Z,45.30
2022-11-26T18:19:14.715Z,45.45
2022-11-26T18:22:03.488Z,45.02
2022-11-26T18:24:57.068Z,45.08
2022-11-26T18:27:46.474Z,41.64
2022-11-26T18:30:35.117Z,37.26
2022-11-26T18:33:23.762Z,38.39
2022-11-26T18:36:12.729Z,37.40
2022-11-26T18:39:01.777Z,38.80
2022-11-26T18:41:54.493Z,39.83
2022-11-26T18:44:45.933Z,40.39
2022-11-26T18:47:34.893Z,40.76
2022-11-26T18:50:23.468Z,41.13
2022-11-26T18:53:12.188Z,41.59
2022-11-26T18:56:01.029Z,41.79
2022-11-26T18:58:51.788Z,42.24
2022-11-26T19:01:40.620Z,43.02
2022-11-26T19:04:29.329Z,42.48
2022-11-26T19:07:18.006Z,42.66
2022-11-26T19:10:07.934Z,42.64
2022-11-26T19:12:56.573Z,40.06
2022-11-26T19:15:47.655Z,36.12
2022-11-26T19:18:43.157Z,38.34
2022-11-26T19:21:33.075Z,40.04
2022-11-26T19:24:21.768Z,40.59
2022-11-26T19:27:10.360Z,41.40
2022-11-26T19:29:58.946Z,41.75
2022-11-26T19:32:48.898Z,42.01
2022-11-26T19:35:40.340Z,42.44
2022-11-26T19:38:28.977Z,42.95
2022-11-26T19:41:21.318Z,43.13
2022-11-26T19:44:13.958Z,43.28
2022-11-26T19:47:02.668Z,43.36
2022-11-26T19:49:52.658Z,43.68
2022-11-26T19:52:46.467Z,43.72
2022-11-26T19:55:36.443Z,44.38
2022-11-26T19:58:25.404Z,44.50
2022-11-26T20:01:15.635Z,44.76
2022-11-26T20:04:06.015Z,44.82
2022-11-26T20:06:56.072Z,44.99
2022-11-26T20:09:44.671Z,44.90
2022-11-26T20:12:33.356Z,45.21
2022-11-26T20:15:21.981Z,45.06
2022-11-26T20:18:11.305Z,45.10
2022-11-26T20:21:00.182Z,45.27
2022-11-26T20:23:52.117Z,45.13
2022-11-26T20:26:42.995Z,45.60
2022-11-26T20:29:31.696Z,45.71
2022-11-26T20:32:20.257Z,45.81
2022-11-26T20:35:09.439Z,45.75
2022-11-26T20:37:58.095Z,45.83
2022-11-26T20:40:48.132Z,46.16
2022-11-26T20:43:36.739Z,46.24
2022-11-26T20:46:26.127Z,46.40
2022-11-26T20:49:16.083Z,46.56
2022-11-26T20:52:07.669Z,46.18
2022-11-26T20:54:56.344Z,45.87
2022-11-26T20:57:46.283Z,45.54
2022-11-26T21:00:34.897Z,45.42
2022-11-26T21:03:23.832Z,44.89
2022-11-26T21:06:13.988Z,45.14
2022-11-26T21:09:04.328Z,44.93
2022-11-26T21:11:52.999Z,44.65
2022-11-26T21:14:42.918Z,44.89
2022-11-26T21:17:31.634Z,44.65
2022-11-26T21:20:20.739Z,44.55
2022-11-26T21:23:10.006Z,44.51
2022-11-26T21:25:58.578Z,44.27
2022-11-26T21:28:51.274Z,44.58
2022-11-26T21:31:41.270Z,44.43
2022-11-26T21:34:29.879Z,44.66
2022-11-26T21:37:18.856Z,44.77
2022-11-26T21:40:08.765Z,44.73
2022-11-26T21:42:57.511Z,44.83
2022-11-26T21:45:46.076Z,44.85
2022-11-26T21:48:36.644Z,44.81
2022-11-26T21:51:27.097Z,45.03
2022-11-26T21:54:16.371Z,45.06
2022-11-26T21:57:05.204Z,44.83
2022-11-26T21:59:53.740Z,44.79
2022-11-26T22:02:42.425Z,44.49
2022-11-26T22:05:32.407Z,44.25
2022-11-26T22:08:21.140Z,45.34
2022-11-26T22:11:10.932Z,45.04
2022-11-26T22:13:59.635Z,44.79
2022-11-26T22:16:51.632Z,44.59
2022-11-26T22:19:40.484Z,44.45
2022-11-26T22:22:30.661Z,44.51
2022-11-26T22:25:19.263Z,44.81
2022-11-26T22:28:07.935Z,44.51
2022-11-26T22:30:56.725Z,44.51
2022-11-26T22:33:45.490Z,44.69
2022-11-26T22:36:34.598Z,44.62
2022-11-26T22:39:24.583Z,44.39
2022-11-26T22:42:13.853Z,44.48
2022-11-26T22:45:03.026Z,44.50
2022-11-26T22:47:52.927Z,44.51
2022-11-26T22:50:41.730Z,44.95
2022-11-26T22:53:30.568Z,44.67
2022-11-26T22:56:20.717Z,44.42
2022-11-26T22:59:10.709Z,44.42
2022-11-26T23:01:59.355Z,44.54
2022-11-26T23:04:48.289Z,44.47
2022-11-26T23:07:36.959Z,44.60
2022-11-26T23:10:28.262Z,44.85
2022-11-26T23:13:18.808Z,45.02
2022-11-26T23:16:09.097Z,44.98
2022-11-26T23:18:58.804Z,45.29
2022-11-26T23:21:47.789Z,46.18
2022-11-26T23:24:36.618Z,46.35
2022-11-26T23:27:25.316Z,46.33
2022-11-26T23:30:15.784Z,46.56
2022-11-26T23:33:04.690Z,46.94
2022-11-26T23:35:53.336Z,47.29
2022-11-26T23:38:42.309Z,47.47
2022-11-26T23:41:31.070Z,47.58
2022-11-26T23:44:19.709Z,47.30
2022-11-26T23:47:09.981Z,47.22
2022-11-26T23:50:00.989Z,47.96
2022-11-26T23:52:49.872Z,48.02
2022-11-26T23:55:38.594Z,48.11
2022-11-26T23:58:27.259Z,47.64
